createdAt,value
2023-05-18T00:01:23.629Z,98825.63
2023-05-18T00:03:54.495Z,98824.81
2023-05-18T00:06:22.708Z,98827.56
2023-05-18T00:08:49.884Z,98828.38
2023-05-18T00:11:18.165Z,98834.38
2023-05-18T00:13:46.164Z,98829.63
2023-05-18T00:16:16.111Z,98830.00
2023-05-18T00:18:45.526Z,98817.13
2023-05-18T00:21:13.578Z,98810.69
2023-05-18T00:23:41.044Z,98824.91
2023-05-18T00:26:07.939Z,98817.25
2023-05-18T00:28:34.973Z,98815.06
2023-05-18T00:31:02.086Z,98827.91
2023-05-18T00:33:29.055Z,98836.78
2023-05-18T00:35:57.705Z,98819.56
2023-05-18T00:38:25.036Z,98828.66
2023-05-18T00:40:52.069Z,98838.81
2023-05-18T00:43:19.100Z,98826.84
2023-05-18T00:45:46.168Z,98842.47
2023-05-18T00:48:13.287Z,98849.16
2023-05-18T00:50:40.882Z,98851.47
2023-05-18T00:53:10.874Z,98844.34
2023-05-18T00:55:38.052Z,98840.66
2023-05-18T00:58:05.561Z,98861.03
2023-05-18T01:00:33.992Z,98845.84
2023-05-18T01:03:02.419Z,98854.00
2023-05-18T01:05:29.992Z,98857.47
2023-05-18T01:07:58.053Z,98845.31
2023-05-18T01:10:25.372Z,98852.81
2023-05-18T01:12:55.042Z,98855.34
2023-05-18T01:15:34.278Z,98846.13
2023-05-18T01:18:23.514Z,98854.19
2023-05-18T01:21:00.195Z,98858.47
2023-05-18T01:23:42.597Z,98844.53
2023-05-18T01:26:17.974Z,98846.94
2023-05-18T01:28:47.013Z,98845.44
2023-05-18T01:31:16.573Z,98844.72
2023-05-18T01:33:44.946Z,98853.38
2023-05-18T01:36:12.107Z,98833.72
2023-05-18T01:38:43.133Z,98851.06
2023-05-18T01:41:28.674Z,98849.72
2023-05-18T01:44:15.888Z,98854.53
2023-05-18T01:47:21.749Z,98860.25
2023-05-18T01:49:59.181Z,98841.13
2023-05-18T01:52:47.500Z,98863.13
2023-05-18T01:55:17.422Z,98858.41
2023-05-18T01:57:46.681Z,98860.59
2023-05-18T02:00:17.858Z,98865.91
2023-05-18T02:02:46.748Z,98875.69
2023-05-18T02:05:16.601Z,98877.31
2023-05-18T02:07:47.653Z,98865.22
2023-05-18T02:10:15.369Z,98873.75
2023-05-18T02:12:42.671Z,98866.84
2023-05-18T02:15:10.154Z,98866.03
2023-05-18T02:17:40.198Z,98877.44
2023-05-18T02:20:07.978Z,98873.66
2023-05-18T02:22:35.614Z,98866.50
2023-05-18T02:25:04.250Z,98877.00
2023-05-18T02:27:32.417Z,98867.78
2023-05-18T02:29:59.592Z,98874.00
2023-05-18T02:32:26.896Z,98864.22
2023-05-18T02:34:53.968Z,98870.31
2023-05-18T02:37:23.326Z,98881.03
2023-05-18T02:39:50.659Z,98888.16
2023-05-18T02:42:17.580Z,98872.84
2023-05-18T02:44:44.614Z,98888.84
2023-05-18T02:47:15.018Z,98891.84
2023-05-18T02:49:42.177Z,98894.28
2023-05-18T02:52:09.266Z,98907.41
2023-05-18T02:54:36.655Z,98890.69
2023-05-18T02:57:06.863Z,98874.91
2023-05-18T02:59:51.044Z,98890.69
2023-05-18T03:02:18.394Z,98893.56
2023-05-18T03:04:49.332Z,98902.91
2023-05-18T03:07:16.939Z,98883.56
2023-05-18T03:09:44.955Z,98903.47
2023-05-18T03:12:12.618Z,98917.75
2023-05-18T03:14:40.162Z,98906.00
2023-05-18T03:17:07.461Z,98911.31
2023-05-18T03:19:35.101Z,98894.03
2023-05-18T03:22:02.084Z,98920.28
2023-05-18T03:24:30.618Z,98926.50
2023-05-18T03:27:01.127Z,98920.06
2023-05-18T03:29:31.340Z,98933.19
2023-05-18T03:31:59.459Z,98924.09
2023-05-18T03:34:26.767Z,98933.09
2023-05-18T03:36:54.877Z,98940.09
2023-05-18T03:39:22.576Z,98934.56
2023-05-18T03:41:49.724Z,98944.84
2023-05-18T03:44:17.091Z,98947.59
2023-05-18T03:46:44.602Z,98954.75
2023-05-18T03:49:12.081Z,98952.09
2023-05-18T03:51:41.967Z,98968.13
2023-05-18T03:54:09.387Z,98969.28
2023-05-18T03:56:36.844Z,98966.72
2023-05-18T03:59:04.551Z,98954.75
2023-05-18T04:01:34.665Z,98962.69
2023-05-18T04:04:01.827Z,98951.63
2023-05-18T04:06:30.204Z,98969.72
2023-05-18T04:08:57.267Z,98963.28
2023-05-18T04:11:26.061Z,98985.97
2023-05-18T04:13:53.632Z,98970.88
2023-05-18T04:16:22.049Z,98983.31
2023-05-18T04:18:49.245Z,98979.06
2023-05-18T04:21:17.497Z,98981.72
2023-05-18T04:23:45.919Z,98962.34
2023-05-18T04:26:19.939Z,98983.31
2023-05-18T04:28:50.061Z,98975.38
2023-05-18T04:31:18.248Z,98977.78
2023-05-18T04:33:47.511Z,98991.63
2023-05-18T04:36:15.194Z,98987.25
2023-05-18T04:38:42.408Z,98989.53
2023-05-18T04:41:09.690Z,98975.00
2023-05-18T04:43:37.908Z,98981.84
2023-05-18T04:46:07.433Z,98994.63
2023-05-18T04:48:35.415Z,98995.09
2023-05-18T04:51:05.093Z,98995.09
2023-05-18T04:53:33.677Z,98989.56
2023-05-18T04:56:01.861Z,98987.94
2023-05-18T04:58:30.714Z,98999.47
2023-05-18T05:00:58.185Z,99003.84
2023-05-18T05:03:25.259Z,98996.94
2023-05-18T05:05:52.481Z,99010.66
2023-05-18T05:08:19.597Z,99001.09
2023-05-18T05:10:46.864Z,99004.78
2023-05-18T05:13:14.948Z,99018.16
2023-05-18T05:15:42.275Z,99006.41
2023-05-18T05:18:09.309Z,99000.75
2023-05-18T05:20:36.470Z,99020.09
2023-05-18T05:23:03.475Z,99018.47
2023-05-18T05:25:30.809Z,99033.47
2023-05-18T05:27:58.021Z,99026.78
2023-05-18T05:30:26.711Z,99039.69
2023-05-18T05:32:54.120Z,99041.88
2023-05-18T05:35:21.706Z,99044.66
2023-05-18T05:37:48.961Z,99038.78
2023-05-18T05:40:17.020Z,99049.50
2023-05-18T05:42:46.353Z,99048.69
2023-05-18T05:45:13.596Z,99038.19
2023-05-18T05:47:53.100Z,99047.19
2023-05-18T05:50:21.588Z,99049.38
2023-05-18T05:52:50.272Z,99051.09
2023-05-18T05:55:18.264Z,99045.09
2023-05-18T05:57:45.481Z,99056.56
2023-05-18T06:00:13.733Z,99068.91
2023-05-18T06:02:52.719Z,99059.44
2023-05-18T06:05:26.527Z,99062.31
2023-05-18T06:07:55.659Z,99072.00
2023-05-18T06:10:22.762Z,99044.00
2023-05-18T06:12:50.268Z,99071.53
2023-05-18T06:15:19.021Z,99051.47
2023-05-18T06:17:47.333Z,99084.88
2023-05-18T06:20:15.319Z,99078.63
2023-05-18T06:22:42.256Z,99073.66
2023-05-18T06:25:18.596Z,99076.53
2023-05-18T06:27:58.477Z,99081.47
2023-05-18T06:30:44.229Z,99081.91
2023-05-18T06:33:21.392Z,99073.94
2023-05-18T06:35:48.559Z,99085.94
2023-05-18T06:38:15.665Z,99090.69
2023-05-18T06:40:42.804Z,99084.50
2023-05-18T06:43:10.036Z,99082.53
2023-05-18T06:45:48.505Z,99081.16
2023-05-18T06:48:29.190Z,99091.09
2023-05-18T06:50:56.568Z,99095.47
2023-05-18T06:53:23.741Z,99103.69
2023-05-18T06:55:50.895Z,99102.31
2023-05-18T06:58:17.891Z,99070.50
2023-05-18T07:00:46.003Z,99089.31
2023-05-18T07:03:13.354Z,99087.81
2023-05-18T07:05:40.357Z,99092.47
2023-05-18T07:08:07.760Z,99093.03
2023-05-18T07:10:35.892Z,99088.66
2023-05-18T07:13:03.024Z,99100.19
2023-05-18T07:15:30.410Z,99089.88
2023-05-18T07:17:58.023Z,99105.63
2023-05-18T07:20:26.555Z,99100.19
2023-05-18T07:22:56.068Z,99096.38
2023-05-18T07:25:23.935Z,99110.09
2023-05-18T07:27:54.808Z,99096.84
2023-05-18T07:30:23.797Z,99119.53
2023-05-18T07:32:51.454Z,99106.84
2023-05-18T07:35:22.207Z,99114.66
2023-05-18T07:37:52.182Z,99112.78
2023-05-18T07:40:19.382Z,99121.88
2023-05-18T07:42:46.931Z,99123.50
2023-05-18T07:45:13.989Z,99126.94
2023-05-18T07:47:41.205Z,99123.47
2023-05-18T07:50:08.971Z,99123.75
2023-05-18T07:52:36.132Z,99110.69
2023-05-18T07:55:03.271Z,99131.91
2023-05-18T07:57:31.186Z,99145.44
2023-05-18T07:59:58.151Z,99137.56
2023-05-18T08:02:25.421Z,99132.00
2023-05-18T08:04:53.497Z,99157.56
2023-05-18T08:07:21.553Z,99158.97
2023-05-18T08:09:48.607Z,99155.66
2023-05-18T08:12:15.932Z,99155.56
2023-05-18T08:14:43.398Z,99161.84
2023-05-18T08:17:10.748Z,99157.63
2023-05-18T08:19:39.825Z,99146.00
2023-05-18T08:22:08.912Z,99153.34
2023-05-18T08:24:35.958Z,99159.44
2023-05-18T08:27:03.653Z,99156.72
2023-05-18T08:29:30.951Z,99153.50
2023-05-18T08:31:58.226Z,99164.66
2023-05-18T08:34:25.716Z,99167.97
2023-05-18T08:36:52.900Z,99175.72
2023-05-18T08:39:20.034Z,99178.88
2023-05-18T08:42:05.715Z,99187.59
2023-05-18T08:45:15.502Z,99190.72
2023-05-18T08:47:42.614Z,99186.78
2023-05-18T08:50:13.816Z,99191.31
2023-05-18T08:52:46.915Z,99181.91
2023-05-18T08:55:15.878Z,99187.19
2023-05-18T08:57:44.259Z,99175.78
2023-05-18T09:00:12.857Z,99178.91
2023-05-18T09:02:41.532Z,99190.53
2023-05-18T09:05:10.080Z,99194.84
2023-05-18T09:07:39.721Z,99194.91
2023-05-18T09:10:08.072Z,99192.19
2023-05-18T09:12:36.325Z,99203.91
2023-05-18T09:15:04.097Z,99193.94
2023-05-18T09:17:31.912Z,99202.22
2023-05-18T09:19:59.117Z,99188.31
2023-05-18T09:22:26.625Z,99193.00
2023-05-18T09:24:53.814Z,99202.59
2023-05-18T09:27:22.450Z,99196.06
2023-05-18T09:29:54.362Z,99172.75
2023-05-18T09:32:22.533Z,99198.75
2023-05-18T09:34:50.627Z,99202.38
2023-05-18T09:37:18.815Z,99206.03
2023-05-18T09:39:57.939Z,99185.63
2023-05-18T09:42:45.030Z,99198.56
2023-05-18T09:45:19.507Z,99198.97
2023-05-18T09:47:47.445Z,99193.44
2023-05-18T09:50:14.540Z,99208.34
2023-05-18T09:52:43.575Z,99211.50
2023-05-18T09:55:11.928Z,99213.59
2023-05-18T09:57:44.260Z,99190.91
2023-05-18T10:00:12.884Z,99200.50
2023-05-18T10:02:41.832Z,99194.38
2023-05-18T10:05:35.531Z,99195.31
2023-05-18T10:08:03.279Z,99182.81
2023-05-18T10:10:30.766Z,99183.50
2023-05-18T10:12:58.697Z,99186.78
2023-05-18T10:15:26.497Z,99186.25
2023-05-18T10:17:56.711Z,99182.38
2023-05-18T10:20:26.929Z,99180.09
2023-05-18T10:22:56.553Z,99176.81
2023-05-18T10:25:27.526Z,99169.81
2023-05-18T10:27:57.823Z,99172.22
2023-05-18T10:30:26.615Z,99178.16
2023-05-18T10:32:57.127Z,99170.31
2023-05-18T10:35:28.395Z,99180.41
2023-05-18T10:37:56.408Z,99192.56
2023-05-18T10:40:24.928Z,99195.41
2023-05-18T10:42:53.744Z,99188.03
2023-05-18T10:45:21.351Z,99188.19
2023-05-18T10:47:49.072Z,99205.72
2023-05-18T10:50:17.150Z,99201.03
2023-05-18T10:52:46.293Z,99206.47
2023-05-18T10:55:13.430Z,99194.28
2023-05-18T10:57:45.844Z,99210.03
2023-05-18T11:00:13.668Z,99205.50
2023-05-18T11:02:43.258Z,99182.00
2023-05-18T11:05:11.905Z,99182.63
2023-05-18T11:07:39.243Z,99184.88
2023-05-18T11:10:11.571Z,99191.69
2023-05-18T11:12:40.771Z,99193.31
2023-05-18T11:15:08.810Z,99185.22
2023-05-18T11:17:36.145Z,99196.94
2023-05-18T11:20:09.236Z,99201.19
2023-05-18T11:23:02.574Z,99200.44
2023-05-18T11:25:32.527Z,99182.03
2023-05-18T11:28:02.654Z,99198.50
2023-05-18T11:30:45.084Z,99198.22
2023-05-18T11:33:22.785Z,99193.09
2023-05-18T11:36:12.309Z,99201.91
2023-05-18T11:38:47.308Z,99198.06
2023-05-18T11:41:58.553Z,99198.09
2023-05-18T11:44:28.630Z,99212.13
2023-05-18T11:46:58.641Z,99207.91
2023-05-18T11:49:31.362Z,99196.63
2023-05-18T11:52:13.915Z,99206.41
2023-05-18T11:54:52.446Z,99203.88
2023-05-18T11:57:24.071Z,99211.31
2023-05-18T11:59:58.373Z,99211.75
2023-05-18T12:02:35.659Z,99186.25
2023-05-18T12:05:07.253Z,99200.75
2023-05-18T12:07:36.399Z,99183.97
2023-05-18T12:10:08.327Z,99191.19
2023-05-18T12:12:35.507Z,99194.38
2023-05-18T12:15:08.379Z,99185.63
2023-05-18T12:17:43.742Z,99191.63
2023-05-18T12:20:18.762Z,99186.22
2023-05-18T12:22:50.421Z,99174.75
2023-05-18T12:25:18.155Z,99186.00
2023-05-18T12:27:46.199Z,99162.28
2023-05-18T12:30:20.865Z,99163.19
2023-05-18T12:32:52.535Z,99168.06
2023-05-18T12:35:23.911Z,99174.59
2023-05-18T12:37:51.314Z,99165.41
2023-05-18T12:40:20.227Z,99166.81
2023-05-18T12:42:57.273Z,99167.59
2023-05-18T12:45:32.757Z,99161.53
2023-05-18T12:48:10.654Z,99155.06
2023-05-18T12:50:46.961Z,99156.47
2023-05-18T12:53:14.148Z,99154.47
2023-05-18T12:55:41.707Z,99160.34
2023-05-18T12:58:18.355Z,99151.13
2023-05-18T13:00:47.578Z,99159.25
2023-05-18T13:03:17.411Z,99164.97
2023-05-18T13:05:46.471Z,99162.59
2023-05-18T13:08:22.120Z,99158.00
2023-05-18T13:11:01.273Z,99151.66
2023-05-18T13:13:36.668Z,99144.50
2023-05-18T13:16:03.895Z,99151.00
2023-05-18T13:18:30.885Z,99167.66
2023-05-18T13:20:58.817Z,99155.03
2023-05-18T13:23:31.686Z,99153.63
2023-05-18T13:25:59.214Z,99162.44
2023-05-18T13:28:27.884Z,99164.09
2023-05-18T13:30:55.248Z,99137.81
2023-05-18T13:33:22.135Z,99173.78
2023-05-18T13:35:50.231Z,99170.59
2023-05-18T13:38:17.088Z,99157.63
2023-05-18T13:40:44.017Z,99164.00
2023-05-18T13:43:13.537Z,99173.66
2023-05-18T13:45:42.393Z,99164.06
2023-05-18T13:48:10.941Z,99156.03
2023-05-18T13:50:39.585Z,99165.84
2023-05-18T13:53:07.177Z,99165.31
2023-05-18T13:55:34.894Z,99167.81
2023-05-18T13:58:02.074Z,99159.88
2023-05-18T14:00:29.111Z,99159.53
2023-05-18T14:02:56.880Z,99158.31
2023-05-18T14:05:24.186Z,99149.31
2023-05-18T14:07:54.505Z,99143.03
2023-05-18T14:10:21.678Z,99144.72
2023-05-18T14:12:49.040Z,99140.25
2023-05-18T14:15:16.617Z,99152.81
2023-05-18T14:17:44.920Z,99138.75
2023-05-18T14:20:12.912Z,99153.50
2023-05-18T14:22:40.619Z,99161.66
2023-05-18T14:25:08.370Z,99152.59
2023-05-18T14:27:35.664Z,99151.38
2023-05-18T14:30:02.667Z,99162.41
2023-05-18T14:32:29.655Z,99165.94
2023-05-18T14:34:58.158Z,99168.19
2023-05-18T14:37:25.695Z,99159.56
2023-05-18T14:39:53.140Z,99155.81
2023-05-18T14:42:23.666Z,99131.97
2023-05-18T14:44:50.614Z,99148.81
2023-05-18T14:47:22.733Z,99153.72
2023-05-18T14:49:49.748Z,99153.56
2023-05-18T14:52:17.012Z,99161.56
2023-05-18T14:54:44.081Z,99146.47
2023-05-18T14:57:11.463Z,99142.38
2023-05-18T14:59:38.522Z,99147.44
2023-05-18T15:02:05.829Z,99142.25
2023-05-18T15:04:33.060Z,99148.97
2023-05-18T15:07:00.819Z,99143.81
2023-05-18T15:09:27.961Z,99136.25
2023-05-18T15:11:55.189Z,99137.00
2023-05-18T15:14:22.296Z,99140.50
2023-05-18T15:16:49.524Z,99123.25
2023-05-18T15:19:16.578Z,99125.97
2023-05-18T15:21:47.051Z,99122.25
2023-05-18T15:24:14.101Z,99128.75
2023-05-18T15:26:42.081Z,99127.66
2023-05-18T15:29:09.798Z,99122.34
2023-05-18T15:31:39.786Z,99116.81
2023-05-18T15:34:06.875Z,99128.31
2023-05-18T15:36:36.361Z,99121.13
2023-05-18T15:39:05.051Z,99125.47
2023-05-18T15:41:35.562Z,99130.81
2023-05-18T15:44:05.727Z,99133.41
2023-05-18T15:46:35.625Z,99117.25
2023-05-18T15:49:04.150Z,99111.94
2023-05-18T15:51:31.689Z,99133.91
2023-05-18T15:53:59.081Z,99140.34
2023-05-18T15:56:26.291Z,99146.28
2023-05-18T15:58:53.636Z,99111.00
2023-05-18T16:01:20.711Z,99137.06
2023-05-18T16:03:47.799Z,99134.94
2023-05-18T16:06:14.975Z,99128.44
2023-05-18T16:08:42.166Z,99149.25
2023-05-18T16:11:09.250Z,99150.72
2023-05-18T16:13:36.168Z,99161.84
2023-05-18T16:16:06.427Z,99156.97
2023-05-18T16:18:33.498Z,99150.50
2023-05-18T16:21:02.337Z,99172.03
2023-05-18T16:23:29.780Z,99178.06
2023-05-18T16:25:58.776Z,99181.56
2023-05-18T16:28:26.773Z,99181.72
2023-05-18T16:30:55.790Z,99188.47
2023-05-18T16:33:25.846Z,99187.91
2023-05-18T16:35:53.547Z,99176.88
2023-05-18T17:02:16.663Z,99204.47
2023-05-18T17:04:50.140Z,99192.41
2023-05-18T17:07:17.256Z,99207.38
2023-05-18T17:09:44.802Z,99202.28
2023-05-18T17:12:12.786Z,99217.97
2023-05-18T17:14:40.570Z,99203.72
2023-05-18T17:17:10.916Z,99216.88
2023-05-18T17:19:39.821Z,99207.66
2023-05-18T17:22:09.781Z,99216.25
2023-05-18T17:24:40.912Z,99223.97
2023-05-18T17:27:08.455Z,99198.94
2023-05-18T17:29:35.307Z,99235.34
2023-05-18T17:32:05.968Z,99238.75
2023-05-18T17:34:36.462Z,99202.78
2023-05-18T17:37:03.954Z,99234.19
2023-05-18T17:39:31.214Z,99232.44
2023-05-18T17:42:00.193Z,99249.09
2023-05-18T17:44:27.651Z,99253.50
2023-05-18T17:46:54.683Z,99254.56
2023-05-18T17:49:21.955Z,99253.31
2023-05-18T17:51:49.681Z,99239.31
2023-05-18T17:54:16.956Z,99221.94
2023-05-18T17:56:44.017Z,99229.38
2023-05-18T17:59:11.239Z,99235.00
2023-05-18T18:01:38.403Z,99261.09
2023-05-18T18:04:05.697Z,99236.09
2023-05-18T18:06:36.010Z,99264.22
2023-05-18T18:09:04.972Z,99256.97
2023-05-18T18:11:32.328Z,99267.72
2023-05-18T18:14:00.042Z,99262.06
2023-05-18T18:16:27.097Z,99250.41
2023-05-18T18:18:54.433Z,99256.50
2023-05-18T18:21:21.586Z,99261.16
2023-05-18T18:23:48.599Z,99251.03
2023-05-18T18:26:15.777Z,99272.91
2023-05-18T18:28:42.726Z,99273.63
2023-05-18T18:31:09.891Z,99279.88
2023-05-18T18:33:36.943Z,99275.94
2023-05-18T18:36:05.897Z,99245.69
2023-05-18T18:38:34.096Z,99257.91
2023-05-18T18:41:04.418Z,99253.78
2023-05-18T18:43:40.494Z,99259.13
2023-05-18T18:46:07.623Z,99271.59
2023-05-18T18:48:34.766Z,99264.22
2023-05-18T18:51:01.677Z,99261.91
2023-05-18T18:53:28.696Z,99265.28
2023-05-18T18:55:57.291Z,99272.53
2023-05-18T18:58:24.521Z,99259.63
2023-05-18T19:00:51.850Z,99260.66
2023-05-18T19:03:18.922Z,99276.63
2023-05-18T19:05:45.954Z,99266.81
2023-05-18T19:08:13.051Z,99264.84
2023-05-18T19:10:40.197Z,99258.97
2023-05-18T19:13:07.187Z,99272.72
2023-05-18T19:15:35.310Z,99288.06
2023-05-18T19:18:03.190Z,99289.94
2023-05-18T19:20:31.599Z,99295.25
2023-05-18T19:22:58.641Z,99293.16
2023-05-18T19:25:31.944Z,99285.09
2023-05-18T19:30:57.340Z,99278.75
2023-05-18T19:33:24.780Z,99257.31
2023-05-18T19:38:38.998Z,99275.88
2023-05-18T19:41:06.789Z,99278.00
2023-05-18T19:43:33.829Z,99267.34
2023-05-18T19:46:01.063Z,99273.59
2023-05-18T19:48:28.133Z,99268.03
2023-05-18T19:50:55.167Z,99274.41
2023-05-18T19:53:23.075Z,99275.09
2023-05-18T19:55:50.342Z,99267.34
2023-05-18T19:58:17.187Z,99276.38
2023-05-18T20:00:44.497Z,99268.63
2023-05-18T20:03:11.542Z,99275.44
2023-05-18T20:05:38.647Z,99246.00
2023-05-18T20:08:07.567Z,99247.63
2023-05-18T20:10:34.641Z,99264.34
2023-05-18T20:13:01.755Z,99266.78
2023-05-18T20:15:38.027Z,99264.00
2023-05-18T20:18:08.725Z,99276.38
2023-05-18T20:20:36.269Z,99274.75
2023-05-18T20:23:03.645Z,99268.63
2023-05-18T20:25:35.524Z,99268.84
2023-05-18T20:28:08.637Z,99272.91
2023-05-18T20:30:36.430Z,99278.44
2023-05-18T20:33:04.220Z,99272.91
2023-05-18T20:35:32.109Z,99261.34
2023-05-18T20:38:00.195Z,99269.06
2023-05-18T20:40:30.961Z,99278.56
2023-05-18T20:43:01.022Z,99275.44
2023-05-18T20:45:29.994Z,99270.59
2023-05-18T20:47:57.747Z,99272.19
2023-05-18T20:50:24.879Z,99278.19
2023-05-18T20:52:52.918Z,99266.44
2023-05-18T20:55:20.055Z,99277.63
2023-05-18T20:57:49.218Z,99263.44
2023-05-18T21:00:19.926Z,99270.03
2023-05-18T21:02:48.566Z,99266.22
2023-05-18T21:05:16.631Z,99258.25
2023-05-18T21:07:44.047Z,99257.91
2023-05-18T21:10:15.886Z,99264.13
2023-05-18T21:12:43.912Z,99263.44
2023-05-18T21:15:11.224Z,99254.09
2023-05-18T21:17:38.263Z,99261.94
2023-05-18T21:20:07.247Z,99271.75
2023-05-18T21:22:34.812Z,99268.41
2023-05-18T21:25:04.682Z,99283.75
2023-05-18T21:27:37.854Z,99272.69
2023-05-18T21:30:06.200Z,99268.41
2023-05-18T21:32:33.816Z,99268.53
2023-05-18T21:35:00.861Z,99276.16
2023-05-18T21:37:33.180Z,99270.13
2023-05-18T21:40:00.451Z,99274.06
2023-05-18T21:42:27.398Z,99280.66
2023-05-18T21:44:54.321Z,99284.47
2023-05-18T21:47:21.648Z,99263.56
2023-05-18T21:49:48.491Z,99267.13
2023-05-18T21:52:15.589Z,99273.25
2023-05-18T21:54:42.424Z,99261.81
2023-05-18T21:57:09.462Z,99298.88
2023-05-18T21:59:36.428Z,99277.28
2023-05-18T22:02:03.474Z,99281.19
2023-05-18T22:04:30.592Z,99276.94
2023-05-18T22:06:57.819Z,99291.38
2023-05-18T22:09:24.763Z,99281.91
2023-05-18T22:11:51.714Z,99282.81
2023-05-18T22:14:18.875Z,99290.88
2023-05-18T22:16:45.885Z,99274.59
2023-05-18T22:19:12.889Z,99288.91
2023-05-18T22:21:39.818Z,99290.50
2023-05-18T22:24:06.877Z,99288.81
2023-05-18T22:26:33.776Z,99285.56
2023-05-18T22:29:00.585Z,99284.28
2023-05-18T22:31:28.079Z,99282.91
2023-05-18T22:33:56.038Z,99275.41
2023-05-18T22:36:23.061Z,99300.69
2023-05-18T22:38:50.132Z,99285.09
2023-05-18T22:41:17.290Z,99302.28
2023-05-18T22:43:45.136Z,99287.50
2023-05-18T22:46:12.188Z,99289.91
2023-05-18T22:48:39.669Z,99293.50
2023-05-18T22:51:07.038Z,99290.59
2023-05-18T22:53:34.123Z,99291.28
2023-05-18T22:56:01.060Z,99289.66
2023-05-18T22:58:28.248Z,99276.22
2023-05-18T23:00:55.071Z,99289.19
2023-05-18T23:03:22.215Z,99293.78
2023-05-18T23:05:49.185Z,99293.78
2023-05-18T23:08:16.418Z,99282.09
2023-05-18T23:10:44.552Z,99288.66
2023-05-18T23:13:12.749Z,99285.63
2023-05-18T23:15:41.541Z,99290.34
2023-05-18T23:18:09.230Z,99296.69
2023-05-18T23:20:38.710Z,99284.22
2023-05-18T23:23:05.757Z,99284.56
2023-05-18T23:25:33.073Z,99286.50
2023-05-18T23:27:59.974Z,99271.03
2023-05-18T23:30:27.131Z,99282.09
2023-05-18T23:32:54.884Z,99285.06
2023-05-18T23:35:21.915Z,99271.31
2023-05-18T23:37:50.247Z,99284.00
2023-05-18T23:40:19.230Z,99277.88
2023-05-18T23:42:46.600Z,99274.63
2023-05-18T23:45:14.199Z,99271.72
2023-05-18T23:47:41.451Z,99271.72
2023-05-18T23:50:08.908Z,99259.84
2023-05-18T23:52:36.969Z,99266.19
2023-05-18T23:55:05.095Z,99261.47
2023-05-18T23:57:33.140Z,99260.38
